Etusivu
METAR-TAF:

METAR-TAF

Lentoasemat :

Damaskoksen kansainvälinen lentoasema

Damaskos, Syyria

Leveyspiiri: 33-25N, Pituuspiiri: 036-31E, korkeus merenpinnasta: 608 m

Tämänhetkinen sää

Tämä raportti tehtiin 1 tunti ja 3 minuuttia sitten, kello 06.00 UTC
Tuuli 12 kn lounaasta
Lämpötila 13°C
Kosteus 72%
Ilmanpaine 1015 hPa
Näkyvyys 10 km tai enemmän
ei pilviä alle 1500 m:ssä eikä cumulonimbus-pilviä

METAR: OSDI 020600Z 23012KT CAVOK 13/08 Q1015

Aika: 10:03 (07:03 UTC)

Sääennuste

Tämä raportti tehtiin 2 tuntia ja 3 minuuttia sitten, kello 05.00 UTC
Ennuste voimassa 02. päivästä klo 06 UTC - 03. päivään klo 12 UTC
Tuuli 12 kn lounaasta
Näkyvyys: 8000 m
Muutamia pilviä 3000 ft:n korkeudessa
Ajoittain
02. päivästä klo 09 UTC - 02. päivään klo 18 UTC
Tuuli 15 kn lännestä/lounaasta puuskistuen 25 kn:hen

TAF: OSDI 020500Z 0206/0312 22012KT 8000 FEW030 TEMPO 0209/0218 24015G25KT

Säähavainnot ja -ennusteet yli 4000 lentoasemalta (METAR- ja TAF-raportit).

Käytössä olevat sääasemat on merkitty karttaan keltaisilla ja punaisilla pisteillä.

Aseta hiiri pisteen päälle nähdäksesi sääaseman nimen.

Klikkaa sitten nähdäksesi säähavainnot ja -ennusteet.

Kartan vaihtaminen: klikkaa mustalla rastilla varustettuja vihreitä pisteitä, niin voit zoomata sisään; viivalla varustettua vihreää pistettä, niin voit zoomata ulos tai vihreitä nuolia, niin pääset viereisille kartoille.


METAR-TAF: